sensor_id;sensor_type;location;lat;lon;timestamp;temperature;humidity
37289;DHT22;23174;49.462;11.000;2024-03-02T00:00:08;10.80;99.90
37289;DHT22;23174;49.462;11.000;2024-03-02T00:02:11;10.70;99.90
37289;DHT22;23174;49.462;11.000;2024-03-02T00:04:12;10.70;99.90
37289;DHT22;23174;49.462;11.000;2024-03-02T00:06:13;10.70;99.90
37289;DHT22;23174;49.462;11.000;2024-03-02T00:08:14;10.70;99.90
37289;DHT22;23174;49.462;11.000;2024-03-02T00:10:20;10.80;99.90
37289;DHT22;23174;49.462;11.000;2024-03-02T00:12:21;10.80;99.90
37289;DHT22;23174;49.462;11.000;2024-03-02T00:14:21;10.80;99.90
37289;DHT22;23174;49.462;11.000;2024-03-02T00:16:30;10.80;99.90
37289;DHT22;23174;49.462;11.000;2024-03-02T00:18:33;10.80;99.90
37289;DHT22;23174;49.462;11.000;2024-03-02T00:20:34;10.80;99.90
37289;DHT22;23174;49.462;11.000;2024-03-02T00:22:35;10.70;99.90
37289;DHT22;23174;49.462;11.000;2024-03-02T00:24:37;10.80;99.90
37289;DHT22;23174;49.462;11.000;2024-03-02T00:26:39;10.80;99.90
37289;DHT22;23174;49.462;11.000;2024-03-02T00:28:39;10.80;99.90
37289;DHT22;23174;49.462;11.000;2024-03-02T00:32:59;10.80;99.90
37289;DHT22;23174;49.462;11.000;2024-03-02T00:34:59;10.90;99.90
37289;DHT22;23174;49.462;11.000;2024-03-02T00:37:00;10.80;99.90
37289;DHT22;23174;49.462;11.000;2024-03-02T00:39:00;10.90;99.90
37289;DHT22;23174;49.462;11.000;2024-03-02T00:41:05;10.90;99.90
37289;DHT22;23174;49.462;11.000;2024-03-02T00:43:36;10.90;99.90
37289;DHT22;23174;49.462;11.000;2024-03-02T00:45:39;10.80;99.90
37289;DHT22;23174;49.462;11.000;2024-03-02T00:47:40;10.70;99.90
37289;DHT22;23174;49.462;11.000;2024-03-02T00:49:41;10.60;99.90
37289;DHT22;23174;49.462;11.000;2024-03-02T00:51:41;10.70;99.90
37289;DHT22;23174;49.462;11.000;2024-03-02T00:53:42;10.70;99.90
37289;DHT22;23174;49.462;11.000;2024-03-02T00:55:42;10.70;99.90
37289;DHT22;23174;49.462;11.000;2024-03-02T00:57:47;10.70;99.90
37289;DHT22;23174;49.462;11.000;2024-03-02T00:59:48;10.70;99.90
37289;DHT22;23174;49.462;11.000;2024-03-02T01:01:49;10.70;99.90
37289;DHT22;23174;49.462;11.000;2024-03-02T01:03:50;10.70;99.90
37289;DHT22;23174;49.462;11.000;2024-03-02T01:05:50;10.70;99.90
37289;DHT22;23174;49.462;11.000;2024-03-02T01:07:51;10.60;99.90
37289;DHT22;23174;49.462;11.000;2024-03-02T01:09:51;10.60;99.90
37289;DHT22;23174;49.462;11.000;2024-03-02T01:11:52;10.60;99.90
37289;DHT22;23174;49.462;11.000;2024-03-02T01:13:52;10.60;99.90
37289;DHT22;23174;49.462;11.000;2024-03-02T01:15:53;10.60;99.90
37289;DHT22;23174;49.462;11.000;2024-03-02T01:17:53;10.60;99.90
37289;DHT22;23174;49.462;11.000;2024-03-02T01:19:54;10.50;99.90
37289;DHT22;23174;49.462;11.000;2024-03-02T01:21:54;10.60;99.90
37289;DHT22;23174;49.462;11.000;2024-03-02T01:23:55;10.60;99.90
37289;DHT22;23174;49.462;11.000;2024-03-02T01:25:55;10.50;99.90
37289;DHT22;23174;49.462;11.000;2024-03-02T01:27:56;10.50;99.90
37289;DHT22;23174;49.462;11.000;2024-03-02T01:29:56;10.50;99.90
37289;DHT22;23174;49.462;11.000;2024-03-02T01:31:57;10.50;99.90
37289;DHT22;23174;49.462;11.000;2024-03-02T01:33:57;10.50;99.90
37289;DHT22;23174;49.462;11.000;2024-03-02T01:35:57;10.50;99.90
37289;DHT22;23174;49.462;11.000;2024-03-02T01:37:58;10.50;99.90
37289;DHT22;23174;49.462;11.000;2024-03-02T01:39:59;10.60;99.90
37289;DHT22;23174;49.462;11.000;2024-03-02T01:41:59;10.60;99.90
37289;DHT22;23174;49.462;11.000;2024-03-02T01:44:00;10.50;99.90
37289;DHT22;23174;49.462;11.000;2024-03-02T01:46:00;10.50;99.90
37289;DHT22;23174;49.462;11.000;2024-03-02T01:48:01;10.50;99.90
37289;DHT22;23174;49.462;11.000;2024-03-02T01:50:01;10.50;99.90
37289;DHT22;23174;49.462;11.000;2024-03-02T01:52:02;10.40;99.90
37289;DHT22;23174;49.462;11.000;2024-03-02T01:54:02;10.40;99.90
37289;DHT22;23174;49.462;11.000;2024-03-02T01:56:03;10.40;99.90
37289;DHT22;23174;49.462;11.000;2024-03-02T01:58:04;10.40;99.90
37289;DHT22;23174;49.462;11.000;2024-03-02T02:00:05;10.40;99.90
37289;DHT22;23174;49.462;11.000;2024-03-02T02:02:06;10.40;99.90
37289;DHT22;23174;49.462;11.000;2024-03-02T02:04:06;10.30;99.90
37289;DHT22;23174;49.462;11.000;2024-03-02T02:06:08;10.30;99.90
37289;DHT22;23174;49.462;11.000;2024-03-02T02:08:08;10.30;99.90
37289;DHT22;23174;49.462;11.000;2024-03-02T02:10:10;10.30;99.90
37289;DHT22;23174;49.462;11.000;2024-03-02T02:12:11;10.40;99.90
37289;DHT22;23174;49.462;11.000;2024-03-02T02:14:11;10.40;99.90
37289;DHT22;23174;49.462;11.000;2024-03-02T02:16:12;10.40;99.90
37289;DHT22;23174;49.462;11.000;2024-03-02T02:18:12;10.50;99.90
37289;DHT22;23174;49.462;11.000;2024-03-02T02:20:12;10.40;99.90
37289;DHT22;23174;49.462;11.000;2024-03-02T02:22:14;10.40;99.90
37289;DHT22;23174;49.462;11.000;2024-03-02T02:24:14;10.40;99.90
37289;DHT22;23174;49.462;11.000;2024-03-02T02:26:15;10.40;99.90
37289;DHT22;23174;49.462;11.000;2024-03-02T02:28:15;10.50;99.90
37289;DHT22;23174;49.462;11.000;2024-03-02T02:30:20;10.40;99.90
37289;DHT22;23174;49.462;11.000;2024-03-02T02:32:21;10.40;99.90
37289;DHT22;23174;49.462;11.000;2024-03-02T02:34:21;10.50;99.90
37289;DHT22;23174;49.462;11.000;2024-03-02T02:36:22;10.50;99.90
37289;DHT22;23174;49.462;11.000;2024-03-02T02:38:22;10.50;99.90
37289;DHT22;23174;49.462;11.000;2024-03-02T02:40:23;10.40;99.90
37289;DHT22;23174;49.462;11.000;2024-03-02T02:42:23;10.40;99.90
37289;DHT22;23174;49.462;11.000;2024-03-02T02:44:24;10.40;99.90
37289;DHT22;23174;49.462;11.000;2024-03-02T02:46:24;10.30;99.90
37289;DHT22;23174;49.462;11.000;2024-03-02T02:48:25;10.30;99.90
37289;DHT22;23174;49.462;11.000;2024-03-02T02:50:25;10.30;99.90
37289;DHT22;23174;49.462;11.000;2024-03-02T02:52:26;10.30;99.90
37289;DHT22;23174;49.462;11.000;2024-03-02T02:54:31;10.30;99.90
37289;DHT22;23174;49.462;11.000;2024-03-02T02:56:31;10.30;99.90
37289;DHT22;23174;49.462;11.000;2024-03-02T02:58:32;10.30;99.90
37289;DHT22;23174;49.462;11.000;2024-03-02T03:00:32;10.30;99.90
37289;DHT22;23174;49.462;11.000;2024-03-02T03:02:33;10.30;99.90
37289;DHT22;23174;49.462;11.000;2024-03-02T03:04:33;10.40;99.90
37289;DHT22;23174;49.462;11.000;2024-03-02T03:06:34;10.40;99.90
37289;DHT22;23174;49.462;11.000;2024-03-02T03:08:34;10.40;99.90
37289;DHT22;23174;49.462;11.000;2024-03-02T03:10:34;10.40;99.90
37289;DHT22;23174;49.462;11.000;2024-03-02T03:12:35;10.40;99.90
37289;DHT22;23174;49.462;11.000;2024-03-02T03:14:36;10.40;99.90
37289;DHT22;23174;49.462;11.000;2024-03-02T03:16:37;10.40;99.90
37289;DHT22;23174;49.462;11.000;2024-03-02T03:18:37;10.40;99.90
37289;DHT22;23174;49.462;11.000;2024-03-02T03:20:38;10.50;99.90
37289;DHT22;23174;49.462;11.000;2024-03-02T03:22:39;10.40;99.90
37289;DHT22;23174;49.462;11.000;2024-03-02T03:24:39;10.40;99.90
37289;DHT22;23174;49.462;11.000;2024-03-02T03:26:40;10.50;99.90
37289;DHT22;23174;49.462;11.000;2024-03-02T03:28:40;10.40;99.90
37289;DHT22;23174;49.462;11.000;2024-03-02T03:30:41;10.50;99.90
37289;DHT22;23174;49.462;11.000;2024-03-02T03:32:41;10.50;99.90
37289;DHT22;23174;49.462;11.000;2024-03-02T03:34:42;10.50;99.90
37289;DHT22;23174;49.462;11.000;2024-03-02T03:36:42;10.50;99.90
37289;DHT22;23174;49.462;11.000;2024-03-02T03:38:43;10.50;99.90
37289;DHT22;23174;49.462;11.000;2024-03-02T03:40:44;10.40;99.90
37289;DHT22;23174;49.462;11.000;2024-03-02T03:42:45;10.50;99.90
37289;DHT22;23174;49.462;11.000;2024-03-02T03:44:45;10.50;99.90
37289;DHT22;23174;49.462;11.000;2024-03-02T03:46:46;10.50;99.90
37289;DHT22;23174;49.462;11.000;2024-03-02T03:48:46;10.50;99.90
37289;DHT22;23174;49.462;11.000;2024-03-02T03:50:47;10.50;99.90
37289;DHT22;23174;49.462;11.000;2024-03-02T03:52:47;10.40;99.90
37289;DHT22;23174;49.462;11.000;2024-03-02T03:54:48;10.40;99.90
37289;DHT22;23174;49.462;11.000;2024-03-02T03:56:48;10.40;99.90
37289;DHT22;23174;49.462;11.000;2024-03-02T03:58:49;10.40;99.90
37289;DHT22;23174;49.462;11.000;2024-03-02T04:00:49;10.40;99.90
37289;DHT22;23174;49.462;11.000;2024-03-02T04:02:50;10.40;99.90
37289;DHT22;23174;49.462;11.000;2024-03-02T04:04:50;10.30;99.90
37289;DHT22;23174;49.462;11.000;2024-03-02T04:06:51;10.30;99.90
37289;DHT22;23174;49.462;11.000;2024-03-02T04:08:51;10.40;99.90
37289;DHT22;23174;49.462;11.000;2024-03-02T04:10:51;10.40;99.90
37289;DHT22;23174;49.462;11.000;2024-03-02T04:12:52;10.50;99.90
37289;DHT22;23174;49.462;11.000;2024-03-02T04:14:52;10.50;99.90
37289;DHT22;23174;49.462;11.000;2024-03-02T04:16:53;10.40;99.90
37289;DHT22;23174;49.462;11.000;2024-03-02T04:18:54;10.40;99.90
37289;DHT22;23174;49.462;11.000;2024-03-02T04:20:54;10.30;99.90
37289;DHT22;23174;49.462;11.000;2024-03-02T04:22:55;10.40;99.90
37289;DHT22;23174;49.462;11.000;2024-03-02T04:24:55;10.40;99.90
37289;DHT22;23174;49.462;11.000;2024-03-02T04:26:56;10.40;99.90
37289;DHT22;23174;49.462;11.000;2024-03-02T04:28:56;10.30;99.90
37289;DHT22;23174;49.462;11.000;2024-03-02T04:30:57;10.30;99.90
37289;DHT22;23174;49.462;11.000;2024-03-02T04:32:57;10.30;99.90
37289;DHT22;23174;49.462;11.000;2024-03-02T04:34:58;10.30;99.90
37289;DHT22;23174;49.462;11.000;2024-03-02T04:36:58;10.20;99.90
37289;DHT22;23174;49.462;11.000;2024-03-02T04:38:59;10.20;99.90
37289;DHT22;23174;49.462;11.000;2024-03-02T04:40:59;10.20;99.90
37289;DHT22;23174;49.462;11.000;2024-03-02T04:43:00;10.20;99.90
37289;DHT22;23174;49.462;11.000;2024-03-02T04:45:01;10.20;99.90
37289;DHT22;23174;49.462;11.000;2024-03-02T04:47:01;10.20;99.90
37289;DHT22;23174;49.462;11.000;2024-03-02T04:49:02;10.20;99.90
37289;DHT22;23174;49.462;11.000;2024-03-02T04:51:03;10.20;99.90
37289;DHT22;23174;49.462;11.000;2024-03-02T04:53:03;10.10;99.90
37289;DHT22;23174;49.462;11.000;2024-03-02T04:55:04;10.10;99.90
37289;DHT22;23174;49.462;11.000;2024-03-02T04:57:25;10.00;99.90
37289;DHT22;23174;49.462;11.000;2024-03-02T04:59:25;10.10;99.90
37289;DHT22;23174;49.462;11.000;2024-03-02T05:01:26;10.00;99.90
37289;DHT22;23174;49.462;11.000;2024-03-02T05:03:26;10.00;99.90
37289;DHT22;23174;49.462;11.000;2024-03-02T05:05:27;10.00;99.90
37289;DHT22;23174;49.462;11.000;2024-03-02T05:07:27;10.00;99.90
37289;DHT22;23174;49.462;11.000;2024-03-02T05:09:28;10.00;99.90
37289;DHT22;23174;49.462;11.000;2024-03-02T05:11:28;10.00;99.90
37289;DHT22;23174;49.462;11.000;2024-03-02T05:13:39;10.00;99.90
37289;DHT22;23174;49.462;11.000;2024-03-02T05:15:39;10.00;99.90
37289;DHT22;23174;49.462;11.000;2024-03-02T05:17:41;10.00;99.90
37289;DHT22;23174;49.462;11.000;2024-03-02T05:19:44;10.00;99.90
37289;DHT22;23174;49.462;11.000;2024-03-02T05:21:45;10.00;99.90
37289;DHT22;23174;49.462;11.000;2024-03-02T05:23:45;10.00;99.90
37289;DHT22;23174;49.462;11.000;2024-03-02T05:25:46;10.00;99.90
37289;DHT22;23174;49.462;11.000;2024-03-02T05:27:46;10.00;99.90
37289;DHT22;23174;49.462;11.000;2024-03-02T05:29:47;10.00;99.90
37289;DHT22;23174;49.462;11.000;2024-03-02T05:31:48;10.00;99.90
37289;DHT22;23174;49.462;11.000;2024-03-02T05:33:49;10.00;99.90
37289;DHT22;23174;49.462;11.000;2024-03-02T05:35:49;9.90;99.90
37289;DHT22;23174;49.462;11.000;2024-03-02T05:37:52;10.00;99.90
37289;DHT22;23174;49.462;11.000;2024-03-02T05:39:53;9.90;99.90
37289;DHT22;23174;49.462;11.000;2024-03-02T05:41:53;9.90;99.90
37289;DHT22;23174;49.462;11.000;2024-03-02T05:43:54;9.90;99.90
37289;DHT22;23174;49.462;11.000;2024-03-02T05:45:55;9.90;99.90
37289;DHT22;23174;49.462;11.000;2024-03-02T05:47:55;9.80;99.90
37289;DHT22;23174;49.462;11.000;2024-03-02T05:49:55;9.80;99.90
37289;DHT22;23174;49.462;11.000;2024-03-02T05:51:56;9.80;99.90
37289;DHT22;23174;49.462;11.000;2024-03-02T05:53:56;9.80;99.90
37289;DHT22;23174;49.462;11.000;2024-03-02T05:55:57;9.90;99.90
37289;DHT22;23174;49.462;11.000;2024-03-02T05:57:57;9.90;99.90
37289;DHT22;23174;49.462;11.000;2024-03-02T06:00:07;9.80;99.90
37289;DHT22;23174;49.462;11.000;2024-03-02T06:02:08;9.80;99.90
37289;DHT22;23174;49.462;11.000;2024-03-02T06:04:12;9.80;99.90
37289;DHT22;23174;49.462;11.000;2024-03-02T06:06:13;9.70;99.90
37289;DHT22;23174;49.462;11.000;2024-03-02T06:08:13;9.80;99.90
37289;DHT22;23174;49.462;11.000;2024-03-02T06:10:13;9.70;99.90
37289;DHT22;23174;49.462;11.000;2024-03-02T06:12:14;9.70;99.90
37289;DHT22;23174;49.462;11.000;2024-03-02T06:14:15;9.80;99.90
37289;DHT22;23174;49.462;11.000;2024-03-02T06:16:15;9.80;99.90
37289;DHT22;23174;49.462;11.000;2024-03-02T06:18:16;9.70;99.90
37289;DHT22;23174;49.462;11.000;2024-03-02T06:20:16;9.70;99.90
37289;DHT22;23174;49.462;11.000;2024-03-02T06:22:17;9.70;99.90
37289;DHT22;23174;49.462;11.000;2024-03-02T06:24:17;9.70;99.90
37289;DHT22;23174;49.462;11.000;2024-03-02T06:26:18;9.70;99.90
37289;DHT22;23174;49.462;11.000;2024-03-02T06:28:18;9.70;99.90
37289;DHT22;23174;49.462;11.000;2024-03-02T06:30:19;9.70;99.90
37289;DHT22;23174;49.462;11.000;2024-03-02T06:32:19;9.70;99.90
37289;DHT22;23174;49.462;11.000;2024-03-02T06:34:20;9.70;99.90
37289;DHT22;23174;49.462;11.000;2024-03-02T06:36:21;9.80;99.90
37289;DHT22;23174;49.462;11.000;2024-03-02T06:38:21;9.80;99.90
37289;DHT22;23174;49.462;11.000;2024-03-02T06:40:22;9.90;99.90
37289;DHT22;23174;49.462;11.000;2024-03-02T06:42:22;9.80;99.90
37289;DHT22;23174;49.462;11.000;2024-03-02T06:44:23;9.80;99.90
37289;DHT22;23174;49.462;11.000;2024-03-02T06:46:23;9.80;99.90
37289;DHT22;23174;49.462;11.000;2024-03-02T06:48:23;9.70;99.90
37289;DHT22;23174;49.462;11.000;2024-03-02T06:50:24;9.70;99.90
37289;DHT22;23174;49.462;11.000;2024-03-02T06:52:25;9.80;99.90
37289;DHT22;23174;49.462;11.000;2024-03-02T06:54:26;9.70;99.90
37289;DHT22;23174;49.462;11.000;2024-03-02T06:56:26;9.70;99.90
37289;DHT22;23174;49.462;11.000;2024-03-02T06:58:26;9.70;99.90
37289;DHT22;23174;49.462;11.000;2024-03-02T07:00:27;9.70;99.90
37289;DHT22;23174;49.462;11.000;2024-03-02T07:02:27;9.70;99.90
37289;DHT22;23174;49.462;11.000;2024-03-02T07:04:28;9.70;99.90
37289;DHT22;23174;49.462;11.000;2024-03-02T07:06:28;9.70;99.90
37289;DHT22;23174;49.462;11.000;2024-03-02T07:08:29;9.80;99.90
37289;DHT22;23174;49.462;11.000;2024-03-02T07:10:29;9.80;99.90
37289;DHT22;23174;49.462;11.000;2024-03-02T07:12:30;9.90;99.90
37289;DHT22;23174;49.462;11.000;2024-03-02T07:14:31;10.00;99.90
37289;DHT22;23174;49.462;11.000;2024-03-02T07:16:50;10.00;99.90
37289;DHT22;23174;49.462;11.000;2024-03-02T07:18:50;10.10;99.90
37289;DHT22;23174;49.462;11.000;2024-03-02T07:20:52;10.10;99.90
37289;DHT22;23174;49.462;11.000;2024-03-02T07:22:52;10.10;99.90
37289;DHT22;23174;49.462;11.000;2024-03-02T07:24:53;10.10;99.90
37289;DHT22;23174;49.462;11.000;2024-03-02T07:26:53;10.20;99.90
37289;DHT22;23174;49.462;11.000;2024-03-02T07:28:53;10.30;99.90
37289;DHT22;23174;49.462;11.000;2024-03-02T07:31:01;10.30;99.90
37289;DHT22;23174;49.462;11.000;2024-03-02T07:33:02;10.30;99.90
37289;DHT22;23174;49.462;11.000;2024-03-02T07:35:02;10.40;99.90
37289;DHT22;23174;49.462;11.000;2024-03-02T07:37:04;10.40;99.90
37289;DHT22;23174;49.462;11.000;2024-03-02T07:39:04;10.40;99.90
37289;DHT22;23174;49.462;11.000;2024-03-02T07:41:05;10.50;99.90
37289;DHT22;23174;49.462;11.000;2024-03-02T07:43:05;10.50;99.90
37289;DHT22;23174;49.462;11.000;2024-03-02T07:45:06;10.60;99.90
37289;DHT22;23174;49.462;11.000;2024-03-02T07:47:07;10.60;99.90
37289;DHT22;23174;49.462;11.000;2024-03-02T07:49:08;10.60;99.90
37289;DHT22;23174;49.462;11.000;2024-03-02T07:51:08;10.60;99.90
37289;DHT22;23174;49.462;11.000;2024-03-02T07:53:09;10.60;99.90
37289;DHT22;23174;49.462;11.000;2024-03-02T07:55:09;10.60;99.90
37289;DHT22;23174;49.462;11.000;2024-03-02T07:57:10;10.60;99.90
37289;DHT22;23174;49.462;11.000;2024-03-02T07:59:11;10.60;99.90
37289;DHT22;23174;49.462;11.000;2024-03-02T08:01:11;10.60;99.90
37289;DHT22;23174;49.462;11.000;2024-03-02T08:03:12;10.60;99.90
37289;DHT22;23174;49.462;11.000;2024-03-02T08:05:12;10.70;99.90
37289;DHT22;23174;49.462;11.000;2024-03-02T08:07:13;10.70;99.90
37289;DHT22;23174;49.462;11.000;2024-03-02T08:09:13;10.80;99.90
37289;DHT22;23174;49.462;11.000;2024-03-02T08:11:14;10.80;99.90
37289;DHT22;23174;49.462;11.000;2024-03-02T08:13:14;10.80;99.90
37289;DHT22;23174;49.462;11.000;2024-03-02T08:15:15;10.90;99.90
37289;DHT22;23174;49.462;11.000;2024-03-02T08:17:16;11.00;99.90
37289;DHT22;23174;49.462;11.000;2024-03-02T08:19:17;11.00;99.90
37289;DHT22;23174;49.462;11.000;2024-03-02T08:21:17;11.00;99.90
37289;DHT22;23174;49.462;11.000;2024-03-02T08:23:18;11.00;99.90
37289;DHT22;23174;49.462;11.000;2024-03-02T08:25:18;11.00;99.90
37289;DHT22;23174;49.462;11.000;2024-03-02T08:27:19;11.00;99.90
37289;DHT22;23174;49.462;11.000;2024-03-02T08:29:19;11.10;99.90
37289;DHT22;23174;49.462;11.000;2024-03-02T08:31:20;11.00;99.90
37289;DHT22;23174;49.462;11.000;2024-03-02T08:33:20;11.00;99.90
37289;DHT22;23174;49.462;11.000;2024-03-02T08:35:21;11.10;99.90
37289;DHT22;23174;49.462;11.000;2024-03-02T08:37:22;11.00;99.90
37289;DHT22;23174;49.462;11.000;2024-03-02T08:39:23;11.30;99.90
37289;DHT22;23174;49.462;11.000;2024-03-02T08:41:23;11.50;99.90
37289;DHT22;23174;49.462;11.000;2024-03-02T08:43:24;11.70;99.90
37289;DHT22;23174;49.462;11.000;2024-03-02T08:45:25;11.80;99.90
37289;DHT22;23174;49.462;11.000;2024-03-02T08:47:25;11.50;99.90
37289;DHT22;23174;49.462;11.000;2024-03-02T08:49:26;11.40;99.90
37289;DHT22;23174;49.462;11.000;2024-03-02T08:51:26;11.40;99.90
37289;DHT22;23174;49.462;11.000;2024-03-02T08:53:27;11.90;99.90
37289;DHT22;23174;49.462;11.000;2024-03-02T08:55:27;11.80;99.90
37289;DHT22;23174;49.462;11.000;2024-03-02T08:57:28;11.70;99.90
37289;DHT22;23174;49.462;11.000;2024-03-02T08:59:28;11.50;99.90
37289;DHT22;23174;49.462;11.000;2024-03-02T09:01:29;11.80;99.90
37289;DHT22;23174;49.462;11.000;2024-03-02T09:03:29;11.80;99.90
37289;DHT22;23174;49.462;11.000;2024-03-02T09:05:30;11.70;99.90
37289;DHT22;23174;49.462;11.000;2024-03-02T09:07:30;11.70;99.90
37289;DHT22;23174;49.462;11.000;2024-03-02T09:09:31;11.70;99.90
37289;DHT22;23174;49.462;11.000;2024-03-02T09:11:32;11.70;99.90
37289;DHT22;23174;49.462;11.000;2024-03-02T09:13:33;11.70;99.90
37289;DHT22;23174;49.462;11.000;2024-03-02T09:15:33;11.80;99.90
37289;DHT22;23174;49.462;11.000;2024-03-02T09:17:37;11.70;99.90
37289;DHT22;23174;49.462;11.000;2024-03-02T09:19:38;11.80;99.90
37289;DHT22;23174;49.462;11.000;2024-03-02T09:21:39;11.90;99.90
37289;DHT22;23174;49.462;11.000;2024-03-02T09:23:40;11.80;99.90
37289;DHT22;23174;49.462;11.000;2024-03-02T09:25:40;11.90;99.90
37289;DHT22;23174;49.462;11.000;2024-03-02T09:27:41;12.00;99.90
37289;DHT22;23174;49.462;11.000;2024-03-02T09:29:41;12.00;99.90
37289;DHT22;23174;49.462;11.000;2024-03-02T09:31:42;12.00;99.90
37289;DHT22;23174;49.462;11.000;2024-03-02T09:33:43;12.20;99.90
37289;DHT22;23174;49.462;11.000;2024-03-02T09:35:43;12.20;99.90
37289;DHT22;23174;49.462;11.000;2024-03-02T09:37:44;12.10;99.90
37289;DHT22;23174;49.462;11.000;2024-03-02T09:39:44;12.20;99.90
37289;DHT22;23174;49.462;11.000;2024-03-02T09:41:45;12.10;99.90
37289;DHT22;23174;49.462;11.000;2024-03-02T09:43:47;12.10;99.90
37289;DHT22;23174;49.462;11.000;2024-03-02T09:45:48;12.20;99.90
37289;DHT22;23174;49.462;11.000;2024-03-02T09:47:49;12.30;99.90
37289;DHT22;23174;49.462;11.000;2024-03-02T09:49:49;12.30;99.90
37289;DHT22;23174;49.462;11.000;2024-03-02T09:51:50;12.30;99.90
37289;DHT22;23174;49.462;11.000;2024-03-02T09:53:50;12.30;99.90
37289;DHT22;23174;49.462;11.000;2024-03-02T09:55:51;12.40;99.90
37289;DHT22;23174;49.462;11.000;2024-03-02T09:57:51;12.40;99.90
37289;DHT22;23174;49.462;11.000;2024-03-02T09:59:52;12.40;99.90
37289;DHT22;23174;49.462;11.000;2024-03-02T10:01:59;12.50;99.90
37289;DHT22;23174;49.462;11.000;2024-03-02T10:04:00;12.60;99.90
37289;DHT22;23174;49.462;11.000;2024-03-02T10:06:21;12.60;99.90
37289;DHT22;23174;49.462;11.000;2024-03-02T10:08:22;12.60;99.90
37289;DHT22;23174;49.462;11.000;2024-03-02T10:10:23;12.70;99.90
37289;DHT22;23174;49.462;11.000;2024-03-02T10:12:23;12.70;99.90
37289;DHT22;23174;49.462;11.000;2024-03-02T10:14:24;12.70;99.90
37289;DHT22;23174;49.462;11.000;2024-03-02T10:16:25;12.80;99.90
37289;DHT22;23174;49.462;11.000;2024-03-02T10:18:27;12.80;99.90
37289;DHT22;23174;49.462;11.000;2024-03-02T10:20:31;12.90;99.90
37289;DHT22;23174;49.462;11.000;2024-03-02T10:22:33;12.90;99.90
37289;DHT22;23174;49.462;11.000;2024-03-02T10:24:39;12.90;99.90
37289;DHT22;23174;49.462;11.000;2024-03-02T10:26:40;13.00;99.90
37289;DHT22;23174;49.462;11.000;2024-03-02T10:28:46;13.10;99.90
37289;DHT22;23174;49.462;11.000;2024-03-02T10:30:48;13.10;99.90
37289;DHT22;23174;49.462;11.000;2024-03-02T10:32:49;13.10;99.90
37289;DHT22;23174;49.462;11.000;2024-03-02T10:34:50;13.10;99.90
37289;DHT22;23174;49.462;11.000;2024-03-02T10:36:51;13.20;99.90
37289;DHT22;23174;49.462;11.000;2024-03-02T10:38:52;13.30;99.90
37289;DHT22;23174;49.462;11.000;2024-03-02T10:40:56;13.30;99.90
37289;DHT22;23174;49.462;11.000;2024-03-02T10:43:01;13.30;99.90
37289;DHT22;23174;49.462;11.000;2024-03-02T10:45:04;13.30;99.90
37289;DHT22;23174;49.462;11.000;2024-03-02T10:47:05;13.40;99.90
37289;DHT22;23174;49.462;11.000;2024-03-02T10:49:06;13.40;99.90
37289;DHT22;23174;49.462;11.000;2024-03-02T10:51:06;13.50;99.90
37289;DHT22;23174;49.462;11.000;2024-03-02T10:53:07;13.40;99.90
37289;DHT22;23174;49.462;11.000;2024-03-02T10:55:08;13.50;99.90
37289;DHT22;23174;49.462;11.000;2024-03-02T10:57:11;13.50;99.90
37289;DHT22;23174;49.462;11.000;2024-03-02T10:59:33;13.50;99.90
37289;DHT22;23174;49.462;11.000;2024-03-02T11:01:34;13.50;99.90
37289;DHT22;23174;49.462;11.000;2024-03-02T11:03:36;13.50;99.90
37289;DHT22;23174;49.462;11.000;2024-03-02T11:05:44;13.50;99.90
37289;DHT22;23174;49.462;11.000;2024-03-02T11:07:45;13.60;99.90
37289;DHT22;23174;49.462;11.000;2024-03-02T11:09:59;13.60;99.90
37289;DHT22;23174;49.462;11.000;2024-03-02T11:12:09;13.60;99.90
37289;DHT22;23174;49.462;11.000;2024-03-02T11:14:14;13.80;99.90
37289;DHT22;23174;49.462;11.000;2024-03-02T11:18:22;13.70;99.90
37289;DHT22;23174;49.462;11.000;2024-03-02T11:20:23;13.70;99.90
37289;DHT22;23174;49.462;11.000;2024-03-02T11:22:25;13.70;99.90
37289;DHT22;23174;49.462;11.000;2024-03-02T11:26:38;13.70;99.90
37289;DHT22;23174;49.462;11.000;2024-03-02T11:28:40;13.70;99.90
37289;DHT22;23174;49.462;11.000;2024-03-02T11:32:42;13.70;99.90
37289;DHT22;23174;49.462;11.000;2024-03-02T11:34:45;13.70;99.90
37289;DHT22;23174;49.462;11.000;2024-03-02T11:36:49;13.80;99.90
37289;DHT22;23174;49.462;11.000;2024-03-02T11:38:50;13.80;99.90
37289;DHT22;23174;49.462;11.000;2024-03-02T11:40:53;13.80;99.90
37289;DHT22;23174;49.462;11.000;2024-03-02T11:42:54;13.70;99.90
37289;DHT22;23174;49.462;11.000;2024-03-02T11:44:56;13.80;99.90
37289;DHT22;23174;49.462;11.000;2024-03-02T11:47:01;13.80;99.90
37289;DHT22;23174;49.462;11.000;2024-03-02T11:49:02;13.80;99.90
37289;DHT22;23174;49.462;11.000;2024-03-02T11:51:02;13.90;99.90
37289;DHT22;23174;49.462;11.000;2024-03-02T11:53:05;13.80;99.90
37289;DHT22;23174;49.462;11.000;2024-03-02T11:55:07;13.80;99.90
37289;DHT22;23174;49.462;11.000;2024-03-02T11:57:09;13.80;99.90
37289;DHT22;23174;49.462;11.000;2024-03-02T11:59:10;13.80;99.90
37289;DHT22;23174;49.462;11.000;2024-03-02T12:01:10;13.90;99.90
37289;DHT22;23174;49.462;11.000;2024-03-02T12:03:14;13.90;99.90
37289;DHT22;23174;49.462;11.000;2024-03-02T12:05:19;13.90;99.90
37289;DHT22;23174;49.462;11.000;2024-03-02T12:07:20;13.80;99.90
37289;DHT22;23174;49.462;11.000;2024-03-02T12:09:22;13.80;99.90
37289;DHT22;23174;49.462;11.000;2024-03-02T12:11:22;13.90;99.90
37289;DHT22;23174;49.462;11.000;2024-03-02T12:13:23;13.80;99.90
37289;DHT22;23174;49.462;11.000;2024-03-02T12:15:28;13.90;99.90
37289;DHT22;23174;49.462;11.000;2024-03-02T12:17:29;13.90;99.90
37289;DHT22;23174;49.462;11.000;2024-03-02T12:19:31;13.90;99.90
37289;DHT22;23174;49.462;11.000;2024-03-02T12:21:32;13.90;99.90
37289;DHT22;23174;49.462;11.000;2024-03-02T12:23:32;13.90;99.90
37289;DHT22;23174;49.462;11.000;2024-03-02T12:25:33;13.90;99.90
37289;DHT22;23174;49.462;11.000;2024-03-02T12:27:33;13.90;99.90
37289;DHT22;23174;49.462;11.000;2024-03-02T12:29:34;14.00;99.90
37289;DHT22;23174;49.462;11.000;2024-03-02T12:31:35;14.00;99.90
37289;DHT22;23174;49.462;11.000;2024-03-02T12:33:35;14.20;99.90
37289;DHT22;23174;49.462;11.000;2024-03-02T12:35:36;14.10;99.90
37289;DHT22;23174;49.462;11.000;2024-03-02T12:37:45;14.10;99.90
37289;DHT22;23174;49.462;11.000;2024-03-02T12:39:45;14.00;99.90
37289;DHT22;23174;49.462;11.000;2024-03-02T12:41:47;14.10;99.90
37289;DHT22;23174;49.462;11.000;2024-03-02T12:43:47;14.00;99.90